createdAt,value
2022-08-04T00:01:53.906Z,72.96
2022-08-04T00:04:44.585Z,73.00
2022-08-04T00:07:44.294Z,73.38
2022-08-04T00:10:17.525Z,74.57
2022-08-04T00:12:50.682Z,75.08
2022-08-04T00:15:20.165Z,75.31
2022-08-04T00:18:17.615Z,76.50
2022-08-04T00:20:46.121Z,76.14
2022-08-04T00:23:16.671Z,75.88
2022-08-04T00:25:44.793Z,76.59
2022-08-04T00:28:13.791Z,76.79
2022-08-04T00:30:42.867Z,76.89
2022-08-04T00:33:10.933Z,76.71
2022-08-04T00:35:40.408Z,76.50
2022-08-04T00:38:10.658Z,76.84
2022-08-04T00:40:55.725Z,76.15
2022-08-04T00:43:37.006Z,76.32
2022-08-04T00:46:39.544Z,76.01
2022-08-04T00:49:30.155Z,76.32
2022-08-04T00:52:31.690Z,76.09
2022-08-04T00:55:43.292Z,76.25
2022-08-04T00:58:56.066Z,76.53
2022-08-04T01:01:48.747Z,76.23
2022-08-04T01:04:46.196Z,76.37
2022-08-04T01:07:49.686Z,76.69
2022-08-04T01:10:24.514Z,76.77
2022-08-04T01:13:17.414Z,76.69
2022-08-04T01:16:02.369Z,76.85
2022-08-04T01:18:46.662Z,76.66
2022-08-04T01:22:14.315Z,76.75
2022-08-04T01:25:04.615Z,76.80
2022-08-04T01:28:08.746Z,77.04
2022-08-04T01:30:42.245Z,77.24
2022-08-04T01:33:14.352Z,77.25
2022-08-04T01:35:51.643Z,77.37
2022-08-04T01:38:30.488Z,77.55
2022-08-04T01:41:05.228Z,77.26
2022-08-04T01:43:40.481Z,77.33
2022-08-04T01:46:16.053Z,77.72
2022-08-04T01:48:47.066Z,77.39
2022-08-04T01:51:14.911Z,77.86
2022-08-04T01:53:44.936Z,77.81
2022-08-04T01:56:13.018Z,77.81
2022-08-04T01:58:41.627Z,78.01
2022-08-04T02:01:12.458Z,78.58
2022-08-04T02:04:18.417Z,78.19
2022-08-04T02:07:19.980Z,78.47
2022-08-04T02:10:29.295Z,78.46
2022-08-04T02:13:08.551Z,78.22
2022-08-04T02:15:44.673Z,78.40
2022-08-04T02:18:48.206Z,78.35
2022-08-04T02:21:20.374Z,78.30
2022-08-04T02:24:01.025Z,78.67
2022-08-04T02:26:32.120Z,78.54
2022-08-04T02:29:21.502Z,79.03
2022-08-04T02:31:57.938Z,78.81
2022-08-04T02:35:03.787Z,79.19
2022-08-04T02:37:35.879Z,79.26
2022-08-04T02:40:06.870Z,79.08
2022-08-04T02:42:35.226Z,79.24
2022-08-04T02:45:06.824Z,79.15
2022-08-04T02:48:23.687Z,79.25
2022-08-04T02:50:28.844Z,79.69
2022-08-04T02:53:02.808Z,79.95
2022-08-04T02:55:31.925Z,80.04
2022-08-04T02:58:03.933Z,79.79
2022-08-04T03:00:32.015Z,79.83
2022-08-04T03:02:59.255Z,79.88
2022-08-04T03:05:57.751Z,79.82
2022-08-04T03:09:01.594Z,79.99
2022-08-04T03:12:20.803Z,80.06
2022-08-04T03:15:17.844Z,79.93
2022-08-04T03:18:00.254Z,80.11
2022-08-04T03:20:49.645Z,80.15
2022-08-04T03:24:15.934Z,80.11
2022-08-04T03:27:12.545Z,80.32
2022-08-04T03:30:16.120Z,80.17
2022-08-04T03:33:25.533Z,80.08
2022-08-04T03:36:31.767Z,80.04
2022-08-04T03:39:10.978Z,80.04
2022-08-04T03:42:32.659Z,79.97
2022-08-04T03:45:24.445Z,79.74
2022-08-04T03:48:24.824Z,79.78
2022-08-04T03:51:32.510Z,79.65
2022-08-04T03:54:46.859Z,79.80
2022-08-04T03:57:44.294Z,80.31
2022-08-04T04:00:25.803Z,79.90
2022-08-04T04:03:35.097Z,80.41
2022-08-04T04:06:40.240Z,80.53
2022-08-04T04:10:09.654Z,81.20
2022-08-04T04:12:58.558Z,81.00
2022-08-04T04:15:50.118Z,80.46
2022-08-04T04:19:01.912Z,80.32
2022-08-04T04:22:04.687Z,80.21
2022-08-04T04:24:38.005Z,79.73
2022-08-04T04:28:44.488Z,79.31
2022-08-04T04:31:27.158Z,79.25
2022-08-04T04:34:41.737Z,79.32
2022-08-04T04:37:26.318Z,79.25
2022-08-04T04:39:56.654Z,78.89
2022-08-04T04:42:51.546Z,78.70
2022-08-04T04:46:06.117Z,78.71
2022-08-04T04:49:08.694Z,79.76
2022-08-04T04:51:55.576Z,79.61
2022-08-04T04:54:37.666Z,79.35
2022-08-04T04:57:23.266Z,79.12
2022-08-04T05:00:13.734Z,78.96
2022-08-04T05:03:14.604Z,79.03
2022-08-04T05:06:07.977Z,78.74
2022-08-04T05:08:54.466Z,79.25
2022-08-04T05:11:43.871Z,78.87
2022-08-04T05:14:40.948Z,79.62
2022-08-04T05:17:33.348Z,78.46
2022-08-04T05:20:13.275Z,78.77
2022-08-04T05:22:55.061Z,78.73
2022-08-04T05:25:26.535Z,78.34
2022-08-04T05:28:05.236Z,78.53
2022-08-04T05:30:48.663Z,78.26
2022-08-04T05:33:29.146Z,77.86
2022-08-04T05:36:23.447Z,77.81
2022-08-04T05:38:55.663Z,77.50
2022-08-04T05:41:24.123Z,77.53
2022-08-04T05:44:02.299Z,77.32
2022-08-04T05:46:31.378Z,77.15
2022-08-04T05:48:58.582Z,76.94
2022-08-04T05:51:28.172Z,76.99
2022-08-04T05:53:56.883Z,76.42
2022-08-04T05:56:25.041Z,76.15
2022-08-04T05:58:54.402Z,76.19
2022-08-04T06:01:24.626Z,75.72
2022-08-04T06:03:54.001Z,75.49
2022-08-04T06:06:23.824Z,75.12
2022-08-04T06:08:56.288Z,74.67
2022-08-04T06:11:29.210Z,74.75
2022-08-04T06:14:05.176Z,74.36
2022-08-04T06:16:47.024Z,73.63
2022-08-04T06:20:01.126Z,73.38
2022-08-04T06:22:13.821Z,72.45
2022-08-04T06:24:48.248Z,71.94
2022-08-04T06:27:17.539Z,71.42
2022-08-04T06:29:51.634Z,71.27
2022-08-04T06:32:41.673Z,71.29
2022-08-04T06:35:10.527Z,70.94
2022-08-04T06:37:42.629Z,70.74
2022-08-04T06:40:30.664Z,69.71
2022-08-04T06:43:03.488Z,68.98
2022-08-04T06:45:34.785Z,68.94
2022-08-04T06:48:05.258Z,68.57
2022-08-04T06:51:25.112Z,68.04
2022-08-04T06:53:26.480Z,67.38
2022-08-04T06:55:56.557Z,67.07
2022-08-04T06:58:25.947Z,66.64
2022-08-04T07:01:01.943Z,65.87
2022-08-04T07:03:31.546Z,65.85
2022-08-04T07:06:06.063Z,65.55
2022-08-04T07:08:42.676Z,65.74
2022-08-04T07:11:12.115Z,65.50
2022-08-04T07:13:45.045Z,65.17
2022-08-04T07:16:15.891Z,65.09
2022-08-04T07:18:43.900Z,64.32
2022-08-04T07:21:21.194Z,64.01
2022-08-04T07:23:49.409Z,63.45
2022-08-04T07:26:19.262Z,63.14
2022-08-04T07:28:47.313Z,62.33
2022-08-04T07:31:34.427Z,61.81
2022-08-04T07:34:20.626Z,61.88
2022-08-04T07:36:56.278Z,61.36
2022-08-04T07:39:29.559Z,60.42
2022-08-04T07:42:02.664Z,59.42
2022-08-04T07:44:34.807Z,57.46
2022-08-04T07:47:06.084Z,58.01
2022-08-04T07:49:55.964Z,57.98
2022-08-04T07:52:22.553Z,57.55
2022-08-04T07:54:51.489Z,55.97
2022-08-04T07:57:40.714Z,55.48
2022-08-04T08:00:09.807Z,55.74
2022-08-04T08:02:39.012Z,55.75
2022-08-04T08:05:10.697Z,54.41
2022-08-04T08:07:50.393Z,54.19
2022-08-04T08:10:23.245Z,54.24
2022-08-04T08:12:52.833Z,53.46
2022-08-04T08:15:22.343Z,52.06
2022-08-04T08:17:59.680Z,51.80
2022-08-04T08:20:31.330Z,51.58
2022-08-04T08:23:02.224Z,49.93
2022-08-04T08:25:33.920Z,51.00
2022-08-04T08:28:05.511Z,49.96
2022-08-04T08:30:34.566Z,49.09
2022-08-04T08:33:12.506Z,48.70
2022-08-04T08:35:56.021Z,48.31
2022-08-04T08:38:49.674Z,48.30
2022-08-04T08:41:35.906Z,47.71
2022-08-04T08:44:43.654Z,45.76
2022-08-04T08:48:11.179Z,45.18
2022-08-04T08:51:11.518Z,45.82
2022-08-04T08:54:35.128Z,46.05
2022-08-04T08:57:23.432Z,45.59
2022-08-04T09:00:31.580Z,45.89
2022-08-04T09:03:46.671Z,44.88
2022-08-04T09:06:51.062Z,44.35
2022-08-04T09:09:48.265Z,44.84
2022-08-04T09:12:41.716Z,44.65
2022-08-04T09:15:15.929Z,43.48
2022-08-04T09:17:50.225Z,43.30
2022-08-04T09:20:37.315Z,43.08
2022-08-04T09:23:14.098Z,42.78
2022-08-04T09:25:58.417Z,39.65
2022-08-04T09:28:52.952Z,35.42
2022-08-04T09:31:52.904Z,25.55
2022-08-04T09:35:03.488Z,18.72
2022-08-04T09:37:54.989Z,14.45
2022-08-04T09:40:55.206Z,12.38
2022-08-04T09:44:42.224Z,12.05
2022-08-04T09:46:51.704Z,9.60
2022-08-04T09:50:02.535Z,8.48
2022-08-04T09:53:16.813Z,7.90
2022-08-04T09:56:03.906Z,7.44
2022-08-04T09:58:55.653Z,6.42
2022-08-04T10:01:28.669Z,6.10
2022-08-04T10:04:02.279Z,6.18
2022-08-04T10:06:53.717Z,6.45
2022-08-04T10:09:57.711Z,5.52
2022-08-04T10:12:24.783Z,5.71
2022-08-04T10:15:06.573Z,5.55
2022-08-04T10:18:34.015Z,4.94
2022-08-04T10:21:31.720Z,5.26
2022-08-04T10:24:12.676Z,5.62
2022-08-04T10:27:09.799Z,5.55
2022-08-04T10:29:45.805Z,4.91
2022-08-04T10:32:32.045Z,5.14
2022-08-04T10:35:13.414Z,4.56
2022-08-04T10:38:10.288Z,4.78
2022-08-04T10:40:47.630Z,4.62
2022-08-04T10:43:59.132Z,4.83
2022-08-04T10:46:39.750Z,4.44
2022-08-04T10:49:23.962Z,4.60
2022-08-04T10:52:03.416Z,4.68
2022-08-04T10:55:01.313Z,7.04
2022-08-04T10:57:52.147Z,9.73
2022-08-04T11:00:25.384Z,11.55
2022-08-04T11:03:09.041Z,13.60
2022-08-04T11:05:53.255Z,14.60
2022-08-04T11:08:35.539Z,16.01
2022-08-04T11:12:00.833Z,17.69
2022-08-04T11:14:33.359Z,19.40
2022-08-04T11:17:35.324Z,20.29
2022-08-04T11:20:35.720Z,20.66
2022-08-04T11:23:11.069Z,21.10
2022-08-04T11:26:04.970Z,22.15
2022-08-04T11:28:55.844Z,22.97
2022-08-04T11:31:39.372Z,23.56
2022-08-04T11:34:28.196Z,23.99
2022-08-04T11:37:28.385Z,24.28
2022-08-04T11:40:13.867Z,24.36
2022-08-04T11:42:55.312Z,24.89
2022-08-04T11:45:45.972Z,25.38
2022-08-04T11:48:36.021Z,25.40
2022-08-04T11:51:06.998Z,26.32
2022-08-04T11:53:38.981Z,25.97
2022-08-04T11:56:13.566Z,26.47
2022-08-04T11:58:56.874Z,27.14
2022-08-04T12:02:21.243Z,26.42
2022-08-04T12:05:00.026Z,26.67
2022-08-04T12:08:09.372Z,26.83
2022-08-04T12:11:23.998Z,26.05
2022-08-04T12:14:15.291Z,26.77
2022-08-04T12:16:52.161Z,26.76
2022-08-04T12:19:37.352Z,27.52
2022-08-04T12:22:32.635Z,27.51
2022-08-04T12:25:16.390Z,27.40
2022-08-04T12:27:52.236Z,26.33
2022-08-04T12:30:59.637Z,26.54
2022-08-04T12:33:23.160Z,26.79
2022-08-04T12:36:42.561Z,27.23
2022-08-04T12:39:20.486Z,27.48
2022-08-04T12:42:16.016Z,27.47
2022-08-04T12:44:54.210Z,27.74
2022-08-04T12:47:29.711Z,27.33
2022-08-04T12:50:05.074Z,27.36
2022-08-04T12:53:01.486Z,28.25
2022-08-04T12:55:34.381Z,27.68
2022-08-04T12:58:11.880Z,28.11
2022-08-04T13:00:42.058Z,28.33
2022-08-04T13:03:17.567Z,28.93
2022-08-04T13:05:46.873Z,28.02
2022-08-04T13:08:20.050Z,28.05
2022-08-04T13:10:52.281Z,27.49
2022-08-04T13:13:31.765Z,27.64
2022-08-04T13:16:11.459Z,28.50
2022-08-04T13:18:49.734Z,28.53
2022-08-04T13:21:49.987Z,27.81
2022-08-04T13:24:21.872Z,27.16
2022-08-04T13:27:09.415Z,27.45
2022-08-04T13:29:59.973Z,27.86
2022-08-04T13:32:34.307Z,27.55
2022-08-04T13:35:04.760Z,27.41
2022-08-04T13:37:39.506Z,27.74
2022-08-04T13:40:15.381Z,26.86
2022-08-04T13:42:48.258Z,26.96
2022-08-04T13:45:21.810Z,27.16
2022-08-04T13:47:52.275Z,27.30
2022-08-04T13:50:27.398Z,27.13
2022-08-04T13:52:59.793Z,27.46
2022-08-04T13:55:34.065Z,27.66
2022-08-04T13:58:24.579Z,27.03
2022-08-04T14:01:03.375Z,27.39
2022-08-04T14:03:54.279Z,27.73
2022-08-04T14:06:28.678Z,27.83
2022-08-04T14:09:19.785Z,27.55
2022-08-04T14:12:39.058Z,27.67
2022-08-04T14:15:02.724Z,27.72
2022-08-04T14:17:30.857Z,28.04
2022-08-04T14:20:02.111Z,28.29
2022-08-04T14:22:35.297Z,28.19
2022-08-04T14:25:17.916Z,28.22
2022-08-04T14:27:55.226Z,28.97
2022-08-04T14:30:37.056Z,28.84
2022-08-04T14:34:01.877Z,29.65
2022-08-04T14:36:01.507Z,29.16
2022-08-04T14:38:56.397Z,28.62
2022-08-04T14:41:32.754Z,27.86
2022-08-04T14:44:03.725Z,28.14
2022-08-04T14:46:36.652Z,28.54
2022-08-04T14:49:12.993Z,28.61
2022-08-04T14:52:05.845Z,28.43
2022-08-04T14:54:35.556Z,28.70
2022-08-04T14:57:06.752Z,29.08
2022-08-04T14:59:59.444Z,29.81
2022-08-04T15:02:30.535Z,29.49
2022-08-04T15:04:59.372Z,29.56
2022-08-04T15:07:47.309Z,30.15
2022-08-04T15:10:15.026Z,29.92
2022-08-04T15:12:42.821Z,29.87
2022-08-04T15:15:35.249Z,30.43
2022-08-04T15:17:59.369Z,30.18
2022-08-04T15:20:27.354Z,30.04
2022-08-04T15:22:54.672Z,30.40
2022-08-04T15:25:22.170Z,30.39
2022-08-04T15:27:51.828Z,29.88
2022-08-04T15:30:19.409Z,30.04
2022-08-04T15:32:57.403Z,30.10
2022-08-04T15:35:35.127Z,30.13
2022-08-04T15:38:27.668Z,30.16
2022-08-04T15:41:12.093Z,29.89
2022-08-04T15:44:16.951Z,30.17
2022-08-04T15:47:15.242Z,30.44
2022-08-04T15:49:44.716Z,30.49
2022-08-04T15:52:16.858Z,30.48
2022-08-04T15:54:51.994Z,30.86
2022-08-04T15:58:22.568Z,31.58
2022-08-04T16:00:49.874Z,32.00
2022-08-04T16:03:58.247Z,32.79
2022-08-04T16:06:22.845Z,32.76
2022-08-04T16:08:57.959Z,32.94
2022-08-04T16:11:31.203Z,33.19
2022-08-04T16:13:59.675Z,33.73
2022-08-04T16:16:28.997Z,33.43
2022-08-04T16:19:05.615Z,33.50
2022-08-04T16:22:00.299Z,34.15
2022-08-04T16:24:40.359Z,34.61
2022-08-04T16:27:13.309Z,34.37
2022-08-04T16:29:45.924Z,34.57
2022-08-04T16:32:23.854Z,34.50
2022-08-04T16:35:00.169Z,34.86
2022-08-04T16:37:38.311Z,34.99
2022-08-04T16:40:37.041Z,35.26
2022-08-04T16:43:19.199Z,35.67
2022-08-04T16:46:00.886Z,35.67
2022-08-04T16:48:36.715Z,35.89
2022-08-04T16:51:09.959Z,35.99
2022-08-04T16:54:03.690Z,36.06
2022-08-04T16:56:33.149Z,36.48
2022-08-04T16:59:13.001Z,36.69
2022-08-04T17:01:48.564Z,37.48
2022-08-04T17:04:16.978Z,37.19
2022-08-04T17:06:46.770Z,37.09
2022-08-04T17:09:18.062Z,36.99
2022-08-04T17:11:48.273Z,37.66
2022-08-04T17:14:23.922Z,37.93
2022-08-04T17:16:56.103Z,37.94
2022-08-04T17:19:26.553Z,37.72
2022-08-04T17:22:06.001Z,38.66
2022-08-04T17:24:38.365Z,38.67
2022-08-04T17:28:08.750Z,38.87
2022-08-04T17:29:55.243Z,38.83
2022-08-04T17:32:23.789Z,39.52
2022-08-04T17:34:59.829Z,39.81
2022-08-04T17:37:40.037Z,39.83
2022-08-04T17:40:18.664Z,40.28
2022-08-04T17:44:04.473Z,40.86
2022-08-04T17:46:45.418Z,40.99
2022-08-04T17:49:18.682Z,41.33
2022-08-04T17:52:06.016Z,41.18
2022-08-04T17:54:40.344Z,41.06
2022-08-04T17:57:21.419Z,41.38
2022-08-04T17:59:59.559Z,41.86
2022-08-04T18:02:32.624Z,42.11
2022-08-04T18:05:06.301Z,42.29
2022-08-04T18:08:35.354Z,42.67
2022-08-04T18:10:52.447Z,43.50
2022-08-04T18:13:28.456Z,43.78
2022-08-04T18:16:14.584Z,44.10
2022-08-04T18:19:11.366Z,44.81
2022-08-04T18:21:46.659Z,45.15
2022-08-04T18:27:17.318Z,46.20
2022-08-04T18:30:14.961Z,45.96
2022-08-04T18:32:33.727Z,46.59
2022-08-04T18:35:05.073Z,46.62
2022-08-04T18:38:05.368Z,46.58
2022-08-04T18:40:28.130Z,46.71
2022-08-04T18:43:00.603Z,46.65
2022-08-04T18:45:34.038Z,46.64
2022-08-04T18:48:04.115Z,46.86
2022-08-04T18:51:09.179Z,47.34
2022-08-04T18:53:35.708Z,47.55
2022-08-04T18:56:06.322Z,47.22
2022-08-04T18:58:47.463Z,47.35
2022-08-04T19:01:16.127Z,47.65
2022-08-04T19:03:46.346Z,47.30
2022-08-04T19:06:17.106Z,47.79
2022-08-04T19:08:54.678Z,47.74
2022-08-04T19:11:38.148Z,47.75
2022-08-04T19:14:13.754Z,48.52
2022-08-04T19:16:45.642Z,48.75
2022-08-04T19:19:14.019Z,48.48
2022-08-04T19:22:01.156Z,48.24
2022-08-04T19:24:34.073Z,48.78
2022-08-04T19:27:08.216Z,48.82
2022-08-04T19:29:44.684Z,48.76
2022-08-04T19:32:16.086Z,49.11
2022-08-04T19:34:47.402Z,49.38
2022-08-04T19:37:56.954Z,49.16
2022-08-04T19:40:10.070Z,49.21
2022-08-04T19:42:38.306Z,49.57
2022-08-04T19:45:08.361Z,49.36
2022-08-04T19:48:13.031Z,49.60
2022-08-04T19:50:24.564Z,49.69
2022-08-04T19:52:53.675Z,49.81
2022-08-04T19:55:36.691Z,49.62
2022-08-04T19:58:08.514Z,50.25
2022-08-04T20:00:38.689Z,50.20
2022-08-04T20:03:11.208Z,50.82
2022-08-04T20:05:55.330Z,50.84
2022-08-04T20:08:27.920Z,51.02
2022-08-04T20:10:56.314Z,51.03
2022-08-04T20:13:30.931Z,51.48
2022-08-04T20:16:28.809Z,51.27
2022-08-04T20:19:00.756Z,51.74
2022-08-04T20:21:53.857Z,51.51
2022-08-04T20:24:37.559Z,52.06
2022-08-04T20:27:21.960Z,52.32
2022-08-04T20:29:55.393Z,52.47
2022-08-04T20:32:26.728Z,52.92
2022-08-04T20:34:56.832Z,53.35
2022-08-04T20:37:54.773Z,52.74
2022-08-04T20:40:13.660Z,53.27
2022-08-04T20:42:44.887Z,53.53
2022-08-04T20:45:16.390Z,53.50
2022-08-04T20:47:54.174Z,53.73
2022-08-04T20:50:29.683Z,53.52
2022-08-04T20:52:58.959Z,54.17
2022-08-04T20:55:29.751Z,54.17
2022-08-04T20:58:01.347Z,54.12
2022-08-04T21:00:32.078Z,54.29
2022-08-04T21:03:00.152Z,54.40
2022-08-04T21:05:28.268Z,54.14
2022-08-04T21:07:57.596Z,54.69
2022-08-04T21:10:25.912Z,54.59
2022-08-04T21:12:54.368Z,54.76
2022-08-04T21:15:25.567Z,55.16
2022-08-04T21:17:59.287Z,54.91
2022-08-04T21:20:33.599Z,54.63
2022-08-04T21:23:05.149Z,54.88
2022-08-04T21:25:37.926Z,55.14
2022-08-04T21:28:10.365Z,55.33
2022-08-04T21:33:49.801Z,55.96
2022-08-04T21:36:19.783Z,56.21
2022-08-04T21:38:51.200Z,56.29
2022-08-04T21:41:25.074Z,56.39
2022-08-04T21:43:55.436Z,56.78
2022-08-04T21:46:23.138Z,56.99
2022-08-04T21:48:51.131Z,57.53
2022-08-04T21:54:17.327Z,58.21
2022-08-04T21:56:50.835Z,57.95
2022-08-04T21:59:28.513Z,58.37
2022-08-04T22:02:01.387Z,58.25
2022-08-04T22:04:30.577Z,57.81
2022-08-04T22:06:58.307Z,58.16
2022-08-04T22:09:31.217Z,58.08
2022-08-04T22:12:06.696Z,58.31
2022-08-04T22:14:39.533Z,58.78
2022-08-04T22:17:06.879Z,58.18
2022-08-04T22:19:55.353Z,58.56
2022-08-04T22:22:29.048Z,58.65
2022-08-04T22:25:13.148Z,59.09
2022-08-04T22:28:01.730Z,58.66
2022-08-04T22:30:36.905Z,58.82
2022-08-04T22:33:08.769Z,58.76
2022-08-04T22:35:49.113Z,58.76
2022-08-04T22:38:33.995Z,58.67
2022-08-04T22:41:11.812Z,58.96
2022-08-04T22:43:43.132Z,59.22
2022-08-04T22:46:21.707Z,60.30
2022-08-04T22:48:49.338Z,60.96
2022-08-04T22:51:17.175Z,60.62
2022-08-04T22:53:48.784Z,61.07
2022-08-04T22:56:38.145Z,60.87
2022-08-04T22:59:11.245Z,60.91
2022-08-04T23:01:59.535Z,61.46
2022-08-04T23:04:30.433Z,61.37
2022-08-04T23:06:58.158Z,61.35
2022-08-04T23:09:49.214Z,61.48
2022-08-04T23:12:28.922Z,61.74
2022-08-04T23:14:58.814Z,61.41
2022-08-04T23:17:28.663Z,61.54
2022-08-04T23:19:59.299Z,61.65
2022-08-04T23:22:41.738Z,61.79
2022-08-04T23:25:15.793Z,61.80
2022-08-04T23:27:51.594Z,61.78
2022-08-04T23:30:29.782Z,62.44
2022-08-04T23:32:58.229Z,62.55
2022-08-04T23:35:25.709Z,62.96
2022-08-04T23:37:57.308Z,63.63
2022-08-04T23:40:32.908Z,63.89
2022-08-04T23:43:12.368Z,64.56
2022-08-04T23:46:03.895Z,64.38
2022-08-04T23:48:32.462Z,64.42
2022-08-04T23:51:15.449Z,64.33
2022-08-04T23:54:02.577Z,64.60
2022-08-04T23:56:35.619Z,64.56
2022-08-04T23:59:05.163Z,64.75
